Time;durP1;ratioP1;P1;durP2;ratioP2;P2;SDS_P1;SDS_P2;PMS_P1;PMS_P2;Temp;Humidity;BMP_temperature;BMP_pressure;BME280_temperature;BME280_humidity;BME280_pressure;Samples;Min_cycle;Max_cycle;Signal;HPM_P1;HPM_P2
2023/11/04 00:01:47;;;;;;;3.70;2.90;;;;;;;4.23;100.00;152449.59;4975860;29;20515;-87
2023/11/04 00:04:20;;;;;;;5.10;2.90;;;;;;;4.23;100.00;152449.59;4928896;29;20458;-88
2023/11/04 00:06:51;;;;;;;3.20;2.53;;;;;;;4.22;100.00;152448.28;4959616;29;20470;-89
2023/11/04 00:09:26;;;;;;;3.23;2.63;;;;;;;4.20;100.00;152443.16;4930267;29;20519;-88
2023/11/04 00:11:59;;;;;;;3.43;2.60;;;;;;;4.19;100.00;152440.56;4959634;29;20478;-87
2023/11/04 00:14:37;;;;;;;3.73;2.67;;;;;;;4.19;100.00;152439.25;4943828;29;20542;-87
2023/11/04 00:17:15;;;;;;;3.67;2.80;;;;;;;4.18;100.00;152436.72;4944529;29;20478;-88
2023/11/04 00:19:45;;;;;;;3.20;2.90;;;;;;;4.17;100.00;152434.13;4977139;29;20479;-88
2023/11/04 00:22:15;;;;;;;3.30;2.53;;;;;;;4.15;100.00;152430.28;4943170;29;20463;-87
2023/11/04 00:24:47;;;;;;;2.93;2.10;;;;;;;4.14;100.00;152427.69;4943109;29;20486;-87
2023/11/04 00:27:26;;;;;;;2.90;2.20;;;;;;;4.14;100.00;152426.38;4942975;29;20463;-88
2023/11/04 00:29:55;;;;;;;3.83;2.60;;;;;;;4.17;100.00;152434.13;4959419;29;20447;-88
2023/11/04 00:32:30;;;;;;;4.80;2.37;;;;;;;4.21;100.00;152444.41;4943478;29;20514;-89
2023/11/04 00:35:04;;;;;;;2.70;1.97;;;;;;;4.24;100.00;152452.13;4942615;29;20827;-88
2023/11/04 00:37:33;;;;;;;3.40;2.67;;;;;;;4.27;100.00;152461.16;4959020;29;20522;-88
2023/11/04 00:40:08;;;;;;;2.70;2.30;;;;;;;4.30;100.00;152467.59;4974740;28;20463;-88
2023/11/04 00:42:40;;;;;;;4.60;2.27;;;;;;;4.29;100.00;152465.00;4958844;29;20499;-88
2023/11/04 00:45:13;;;;;;;2.40;1.97;;;;;;;4.27;100.00;152459.88;4958475;29;20428;-88
2023/11/04 00:47:54;;;;;;;2.40;1.90;;;;;;;4.25;100.00;152456.03;4974778;29;20450;-88
2023/11/04 00:50:25;;;;;;;2.63;2.17;;;;;;;4.23;100.00;152449.59;4974835;29;20604;-88
2023/11/04 00:52:56;;;;;;;3.80;2.17;;;;;;;4.20;100.00;152443.16;4942847;29;20423;-88
2023/11/04 00:55:30;;;;;;;3.00;2.20;;;;;;;4.21;100.00;152444.41;4942893;29;20471;-88
2023/11/04 00:58:05;;;;;;;2.67;2.30;;;;;;;4.19;100.00;152440.56;4959206;29;20467;-88
2023/11/04 01:00:39;;;;;;;3.87;2.50;;;;;;;4.20;100.00;152441.84;4974207;29;20474;-88
2023/11/04 01:03:13;;;;;;;4.10;2.40;;;;;;;4.17;100.00;152434.13;4927165;29;20456;-88
2023/11/04 01:05:52;;;;;;;4.27;2.67;;;;;;;4.18;100.00;152437.97;4974771;29;20542;-89
2023/11/04 01:08:23;;;;;;;4.00;2.70;;;;;;;4.16;100.00;152432.81;4958377;29;20466;-88
2023/11/04 01:11:06;;;;;;;2.90;2.40;;;;;;;4.12;100.00;152421.25;4958423;29;20451;-88
2023/11/04 01:13:35;;;;;;;3.60;2.90;;;;;;;4.10;100.00;152416.09;4942616;29;20439;-88
2023/11/04 01:16:08;;;;;;;3.87;2.53;;;;;;;4.09;100.00;152413.50;4958717;29;20483;-89
2023/11/04 01:18:41;;;;;;;2.47;2.27;;;;;;;4.07;100.00;152409.66;4943297;29;20539;-88
2023/11/04 01:21:09;;;;;;;3.07;2.40;;;;;;;4.04;100.00;152400.63;4943089;29;20447;-88
2023/11/04 01:23:41;;;;;;;2.70;2.27;;;;;;;4.04;100.00;152401.94;4927033;29;20463;-88
2023/11/04 01:26:13;;;;;;;3.30;2.63;;;;;;;4.01;100.00;152392.91;4958531;29;20449;-88
2023/11/04 01:28:45;;;;;;;3.73;2.67;;;;;;;3.97;100.00;152382.63;4958387;29;20457;-88
2023/11/04 01:31:14;;;;;;;2.50;2.00;;;;;;;3.94;100.00;152376.19;4958321;29;20467;-88
2023/11/04 01:33:46;;;;;;;2.77;2.30;;;;;;;3.93;100.00;152372.28;4958479;29;20433;-88
2023/11/04 01:36:18;;;;;;;3.23;2.30;;;;;;;3.91;100.00;152367.16;4927519;29;20475;-87
2023/11/04 01:38:48;;;;;;;4.40;2.83;;;;;;;3.88;100.00;152359.44;4957702;29;20518;-88
2023/11/04 01:41:20;;;;;;;4.83;2.87;;;;;;;3.87;100.00;152356.81;4941603;29;20471;-88
2023/11/04 01:43:55;;;;;;;3.90;2.73;;;;;;;3.87;100.00;152358.13;4957889;29;20467;-88
2023/11/04 01:46:26;;;;;;;4.93;2.90;;;;;;;3.88;100.00;152360.72;4958027;29;20443;-88
2023/11/04 01:48:57;;;;;;;4.40;2.50;;;;;;;3.85;100.00;152351.69;4926894;29;20462;-88
2023/11/04 01:51:26;;;;;;;2.87;2.53;;;;;;;3.80;100.00;152338.81;4957665;29;20518;-88
2023/11/04 01:54:15;;;;;;;3.80;2.67;;;;;;;3.77;100.00;152331.09;4957663;29;20446;-87
2023/11/04 01:56:53;;;;;;;4.27;2.50;;;;;;;3.77;100.00;152332.38;4973581;28;20443;-87
2023/11/04 01:59:26;;;;;;;3.20;2.17;;;;;;;3.75;100.00;152325.94;4973766;29;20510;-88
2023/11/04 02:01:56;;;;;;;3.43;2.67;;;;;;;3.74;100.00;152323.34;4958200;29;20532;-88
2023/11/04 02:04:33;;;;;;;4.13;2.40;;;;;;;3.74;100.00;152323.34;4957917;29;20456;-88
2023/11/04 02:07:08;;;;;;;4.20;3.00;;;;;;;3.77;100.00;152331.09;4942273;29;20512;-88
2023/11/04 02:09:37;;;;;;;3.57;2.13;;;;;;;3.75;100.00;152327.25;4942025;29;20467;-88
2023/11/04 02:12:08;;;;;;;3.77;2.50;;;;;;;3.69;100.00;152313.09;4956865;29;20451;-89
2023/11/04 02:14:54;;;;;;;4.00;2.90;;;;;;;3.71;100.00;152315.69;4927970;29;20475;-89
2023/11/04 02:17:25;;;;;;;4.10;2.17;;;;;;;3.69;100.00;152313.09;4942076;29;20506;-88
2023/11/04 02:20:04;;;;;;;4.43;2.37;;;;;;;3.66;100.00;152305.34;4941987;29;20452;-88
2023/11/04 02:22:37;;;;;;;2.90;2.00;;;;;;;3.64;100.00;152300.22;4958191;29;20439;-88
2023/11/04 02:25:15;;;;;;;2.23;1.80;;;;;;;3.65;100.00;152302.75;4974029;29;20439;-89
2023/11/04 02:27:55;;;;;;;2.93;2.13;;;;;;;3.64;100.00;152298.91;4958885;29;20444;-89
2023/11/04 02:30:30;;;;;;;2.00;1.63;;;;;;;3.62;100.00;152293.78;4974064;29;20477;-89
2023/11/04 02:33:05;;;;;;;3.07;2.27;;;;;;;3.58;100.00;152284.75;4974748;29;20438;-89
2023/11/04 02:35:49;;;;;;;2.40;1.97;;;;;;;3.56;100.00;152278.31;4942520;29;20475;-89
2023/11/04 02:38:27;;;;;;;3.37;2.63;;;;;;;3.50;100.00;152262.84;4943704;29;20521;-89
2023/11/04 02:41:06;;;;;;;2.30;2.10;;;;;;;3.46;100.00;152252.59;4974093;29;20752;-87
2023/11/04 02:43:45;;;;;;;3.30;2.30;;;;;;;3.45;100.00;152251.28;4958504;29;20447;-88
2023/11/04 02:46:21;;;;;;;2.63;1.80;;;;;;;3.44;100.00;152248.69;4943232;29;20458;-88
2023/11/04 02:51:37;;;;;;;3.80;2.33;;;;;;;3.42;100.00;152243.56;4957892;29;20499;-88
2023/11/04 02:54:13;;;;;;;5.27;2.00;;;;;;;3.41;100.00;152239.72;4974443;29;20431;-89
2023/11/04 02:56:46;;;;;;;2.83;1.77;;;;;;;3.37;100.00;152230.69;4941625;29;20482;-89
2023/11/04 02:59:26;;;;;;;2.20;2.00;;;;;;;3.38;100.00;152232.00;4957298;29;20701;-89
2023/11/04 03:04:41;;;;;;;2.60;2.00;;;;;;;3.48;100.00;152259.00;4928221;29;20468;-88
2023/11/04 03:07:13;;;;;;;3.90;2.50;;;;;;;3.52;100.00;152269.28;4941623;29;20462;-88
2023/11/04 03:09:49;;;;;;;2.97;2.27;;;;;;;3.54;100.00;152274.47;4945062;29;20458;-89
2023/11/04 03:12:22;;;;;;;2.63;1.70;;;;;;;3.54;100.00;152273.19;4960857;29;20455;-89
2023/11/04 03:14:55;;;;;;;3.63;2.03;;;;;;;3.57;100.00;152282.16;4960535;29;20451;-89
2023/11/04 03:17:26;;;;;;;2.80;1.83;;;;;;;3.60;100.00;152289.88;4945327;29;20514;-89
2023/11/04 03:19:57;;;;;;;2.10;1.90;;;;;;;3.62;100.00;152295.06;4960749;29;20439;-89
2023/11/04 03:22:27;;;;;;;2.70;1.87;;;;;;;3.64;100.00;152298.91;4944803;29;20443;-89
2023/11/04 03:25:28;;;;;;;2.70;2.30;;;;;;;3.66;100.00;152305.34;4945645;29;20447;-89
2023/11/04 03:28:05;;;;;;;3.50;2.00;;;;;;;3.67;100.00;152307.94;4959931;29;20475;-89
2023/11/04 03:30:39;;;;;;;2.10;1.60;;;;;;;3.67;100.00;152307.94;4944482;29;20485;-89
2023/11/04 03:34:12;;;;;;;2.50;1.90;;;;;;;3.64;100.00;152300.22;4948760;29;20427;-88
2023/11/04 03:36:45;;;;;;;2.43;1.83;;;;;;;3.62;100.00;152295.06;4940458;29;20563;-88
2023/11/04 03:39:18;;;;;;;2.60;1.93;;;;;;;3.62;100.00;152293.78;4941042;29;20522;-88
2023/11/04 03:42:08;;;;;;;2.37;1.50;;;;;;;3.58;100.00;152284.75;4945879;29;20503;-89
2023/11/04 03:44:39;;;;;;;2.80;1.80;;;;;;;3.63;100.00;152297.63;4945118;29;20454;-88
2023/11/04 03:47:11;;;;;;;2.80;1.87;;;;;;;3.67;100.00;152307.94;4956653;29;20448;-89
2023/11/04 03:49:53;;;;;;;2.40;2.10;;;;;;;3.79;100.00;152336.22;4941222;29;20521;-88
2023/11/04 03:52:23;;;;;;;1.90;1.70;;;;;;;3.79;100.00;152336.22;4942153;29;20495;-89
2023/11/04 03:55:00;;;;;;;3.10;2.13;;;;;;;3.79;100.00;152336.22;4961124;29;20479;-89
2023/11/04 03:57:41;;;;;;;3.70;2.47;;;;;;;3.79;100.00;152336.22;4931394;29;20464;-89
2023/11/04 04:00:36;;;;;;;2.27;1.77;;;;;;;3.74;100.00;152323.34;4945255;29;20486;-89
2023/11/04 04:03:12;;;;;;;3.17;2.23;;;;;;;3.71;100.00;152315.69;4928719;29;20490;-89
2023/11/04 04:05:44;;;;;;;2.33;2.13;;;;;;;3.65;100.00;152302.75;4970463;29;20452;-89
2023/11/04 04:08:17;;;;;;;2.30;2.03;;;;;;;3.62;100.00;152295.06;4959482;29;20502;-89
2023/11/04 04:10:53;;;;;;;2.43;2.17;;;;;;;3.65;100.00;152302.75;4960084;29;20451;-89
2023/11/04 04:13:29;;;;;;;3.40;2.43;;;;;;;3.67;100.00;152307.94;4959980;29;20443;-89
2023/11/04 04:16:05;;;;;;;3.23;2.90;;;;;;;3.66;100.00;152305.34;4976459;29;20511;-89
2023/11/04 04:18:49;;;;;;;5.00;3.50;;;;;;;3.68;100.00;152310.50;4928696;29;20462;-89
2023/11/04 04:21:21;;;;;;;3.10;2.80;;;;;;;3.69;100.00;152313.09;4960914;29;20483;-89
2023/11/04 04:23:56;;;;;;;3.03;2.50;;;;;;;3.71;100.00;152315.69;4945463;29;20796;-89
2023/11/04 04:26:29;;;;;;;2.70;2.30;;;;;;;3.71;100.00;152315.69;4960329;29;20458;-88
2023/11/04 04:31:54;;;;;;;3.40;2.80;;;;;;;3.73;100.00;152320.81;4960745;29;20474;-88
2023/11/04 04:34:31;;;;;;;3.03;2.73;;;;;;;3.73;100.00;152320.81;4960319;29;20450;-88
2023/11/04 04:37:16;;;;;;;3.20;2.50;;;;;;;3.75;100.00;152325.94;4961383;29;20479;-89
2023/11/04 04:39:49;;;;;;;5.67;2.57;;;;;;;3.69;100.00;152313.09;4939892;29;20467;-89
2023/11/04 04:42:25;;;;;;;4.27;2.97;;;;;;;3.68;100.00;152309.19;4924379;29;20475;-89
2023/11/04 04:45:06;;;;;;;2.60;2.37;;;;;;;3.65;100.00;152302.75;4925977;29;20448;-88
2023/11/04 04:47:56;;;;;;;3.13;2.43;;;;;;;3.66;100.00;152305.34;4923161;29;20460;-88
2023/11/04 04:50:27;;;;;;;3.20;2.60;;;;;;;3.67;100.00;152307.94;4940601;29;20448;-89
2023/11/04 04:53:02;;;;;;;3.00;2.33;;;;;;;3.64;100.00;152298.91;4940521;29;20483;-89
2023/11/04 04:55:39;;;;;;;2.90;2.40;;;;;;;3.61;100.00;152291.19;4952654;29;20937;-89
2023/11/04 04:58:22;;;;;;;3.43;2.50;;;;;;;3.55;100.00;152277.03;4943749;29;20431;-89
2023/11/04 05:00:57;;;;;;;6.73;4.87;;;;;;;3.57;100.00;152282.16;4943541;29;20447;-89
2023/11/04 05:03:39;;;;;;;3.77;3.40;;;;;;;3.62;100.00;152295.06;4959299;29;20515;-89
2023/11/04 05:06:21;;;;;;;10.00;4.00;;;;;;;3.68;100.00;152309.19;4944433;29;20455;-89
2023/11/04 05:09:07;;;;;;;3.80;3.17;;;;;;;3.70;100.00;152314.38;4887836;29;20500;-89
2023/11/04 05:11:43;;;;;;;4.00;3.40;;;;;;;3.73;100.00;152320.81;4901641;29;20513;-90
2023/11/04 05:14:17;;;;;;;5.00;4.10;;;;;;;3.81;100.00;152341.41;4918163;29;20470;-89
2023/11/04 05:17:09;;;;;;;3.10;2.70;;;;;;;3.83;100.00;152346.56;4918203;29;20464;-90
2023/11/04 05:19:47;;;;;;;3.83;3.20;;;;;;;3.80;100.00;152338.81;4901324;29;20466;-89
2023/11/04 05:25:25;;;;;;;4.27;3.00;;;;;;;3.80;100.00;152340.13;4886784;29;20462;-89
2023/11/04 05:27:59;;;;;;;3.83;2.93;;;;;;;3.79;100.00;152337.53;4902041;29;20454;-89
2023/11/04 05:30:40;;;;;;;4.20;3.30;;;;;;;3.77;100.00;152331.09;4879152;29;20513;-89
2023/11/04 05:33:19;;;;;;;2.90;2.60;;;;;;;3.80;100.00;152338.81;4901649;29;20502;-89
2023/11/04 05:35:56;;;;;;;3.70;3.00;;;;;;;3.81;100.00;152341.41;4902628;29;20481;-90
2023/11/04 05:41:23;;;;;;;4.33;2.90;;;;;;;3.85;100.00;152351.69;4958308;29;20455;-90
2023/11/04 05:47:01;;;;;;;4.27;2.80;;;;;;;3.87;100.00;152358.13;4974772;29;20463;-89
2023/11/04 05:49:42;;;;;;;3.37;2.87;;;;;;;3.90;100.00;152364.56;4938209;29;20527;-89
2023/11/04 05:52:23;;;;;;;2.70;2.40;;;;;;;3.93;100.00;152372.28;4940378;29;20487;-90
2023/11/04 05:55:02;;;;;;;3.63;2.80;;;;;;;3.95;100.00;152377.44;4936822;29;20452;-90
2023/11/04 05:57:43;;;;;;;2.93;2.60;;;;;;;3.99;100.00;152387.75;4940072;29;20484;-90
2023/11/04 06:00:29;;;;;;;3.17;2.53;;;;;;;3.96;100.00;152380.03;4955159;29;20448;-89
2023/11/04 06:03:19;;;;;;;2.80;2.30;;;;;;;3.90;100.00;152364.56;4940319;29;20468;-88
2023/11/04 06:06:04;;;;;;;2.70;2.30;;;;;;;3.86;100.00;152355.56;4925726;29;20531;-89
2023/11/04 06:08:46;;;;;;;4.00;2.47;;;;;;;3.89;100.00;152362.00;4939963;29;20484;-89
2023/11/04 06:11:23;;;;;;;2.43;2.20;;;;;;;3.86;100.00;152354.28;4939749;29;20528;-88
2023/11/04 06:16:59;;;;;;;2.23;2.03;;;;;;;3.84;100.00;152350.41;4955148;29;20545;-89
2023/11/04 06:19:38;;;;;;;3.00;2.40;;;;;;;3.85;100.00;152351.69;4939930;29;20491;-89
2023/11/04 06:22:07;;;;;;;4.90;2.40;;;;;;;3.88;100.00;152359.44;4925284;29;20448;-89
2023/11/04 06:24:43;;;;;;;3.67;2.40;;;;;;;3.88;100.00;152360.72;4924517;29;20448;-89
2023/11/04 06:27:19;;;;;;;3.70;2.30;;;;;;;3.92;100.00;152371.00;4938721;29;20455;-88
2023/11/04 06:29:53;;;;;;;2.67;2.10;;;;;;;3.97;100.00;152383.88;4954556;29;20448;-88
2023/11/04 06:35:24;;;;;;;3.37;2.90;;;;;;;4.13;100.00;152423.84;4940082;29;20467;-88
2023/11/04 06:37:56;;;;;;;5.30;2.80;;;;;;;4.22;100.00;152447.00;4938937;29;20480;-87
2023/11/04 06:40:28;;;;;;;3.00;2.30;;;;;;;4.37;100.00;152485.63;4954141;29;20460;-87
2023/11/04 06:42:57;;;;;;;3.63;2.60;;;;;;;4.54;100.00;152529.44;4923710;29;20499;-86
2023/11/04 06:45:25;;;;;;;2.90;2.00;;;;;;;4.76;100.00;152586.16;4926611;29;20459;-87
2023/11/04 06:47:58;;;;;;;2.87;2.30;;;;;;;4.93;100.00;152629.94;4957941;29;20440;-87
2023/11/04 06:50:36;;;;;;;3.30;2.80;;;;;;;5.01;100.00;152649.25;4928066;29;20456;-87
2023/11/04 06:53:07;;;;;;;2.70;2.33;;;;;;;5.26;100.00;152712.44;4924936;29;20474;-87
2023/11/04 06:55:49;;;;;;;3.03;2.50;;;;;;;5.36;100.00;152738.22;4960596;29;20483;-87
2023/11/04 06:58:21;;;;;;;4.23;2.70;;;;;;;5.26;100.00;152712.44;4945393;29;20465;-88
2023/11/04 07:00:50;;;;;;;3.03;2.30;;;;;;;5.15;100.00;152684.06;4944976;29;20467;-87
2023/11/04 07:03:24;;;;;;;2.87;2.10;;;;;;;5.11;100.00;152673.78;4961488;29;20494;-87
2023/11/04 07:05:58;;;;;;;2.43;2.10;;;;;;;5.38;100.00;152743.34;4961245;29;20625;-87
2023/11/04 07:08:32;;;;;;;2.20;2.00;;;;;;;5.59;100.00;152797.50;4930382;29;20509;-87
2023/11/04 07:11:09;;;;;;;2.27;1.93;;;;;;;6.29;100.00;152976.88;4961463;29;20462;-88
2023/11/04 07:13:45;;;;;;;3.07;2.20;;;;;;;6.86;100.00;153122.69;4945187;29;20851;-88
2023/11/04 07:16:19;;;;;;;3.53;2.07;;;;;;;7.11;100.00;153187.25;4944994;29;20470;-88
2023/11/04 07:18:49;;;;;;;2.20;1.60;;;;;;;6.73;100.00;153089.13;4930110;29;20451;-88
2023/11/04 07:21:19;;;;;;;2.20;1.80;;;;;;;6.40;100.00;153003.97;4960487;29;20467;-88
2023/11/04 07:23:53;;;;;;;2.20;1.80;;;;;;;6.29;100.00;152976.88;4961036;29;20518;-89
2023/11/04 07:26:27;;;;;;;3.70;2.50;;;;;;;6.78;100.00;153100.78;4945657;29;20438;-89
2023/11/04 07:29:00;;;;;;;2.20;2.00;;;;;;;7.43;100.00;153268.59;4930292;29;20478;-89
2023/11/04 07:31:35;;;;;;;2.93;2.63;;;;;;;8.15;100.00;153452.03;4962256;29;20511;-89
2023/11/04 07:34:08;;;;;;;2.33;2.00;;;;;;;8.67;100.00;153586.50;4944913;29;20450;-88
2023/11/04 07:36:39;;;;;;;3.20;2.17;;;;;;;8.64;97.82;153578.75;4976839;29;20494;-89
2023/11/04 07:39:12;;;;;;;2.93;2.33;;;;;;;8.31;97.84;153494.72;4944568;29;20471;-89
2023/11/04 07:41:43;;;;;;;2.47;1.80;;;;;;;7.84;98.76;153373.19;4944552;29;20456;-88
2023/11/04 07:44:20;;;;;;;2.30;2.10;;;;;;;7.49;100.00;153284.13;4960036;29;20521;-88
2023/11/04 07:47:00;;;;;;;3.60;1.70;;;;;;;7.24;100.00;153220.81;4976453;29;20620;-88
2023/11/04 07:49:31;;;;;;;2.03;1.67;;;;;;;7.09;100.00;153182.09;4944889;29;20489;-88
2023/11/04 07:52:00;;;;;;;1.77;1.50;;;;;;;7.01;100.00;153161.44;4960484;29;20502;-88
2023/11/04 07:54:35;;;;;;;2.57;1.73;;;;;;;6.99;100.00;153156.25;4960393;29;20443;-88
2023/11/04 07:57:11;;;;;;;1.70;1.30;;;;;;;7.03;100.00;153166.59;4960554;29;20467;-88
2023/11/04 07:59:43;;;;;;;2.00;1.80;;;;;;;7.05;100.00;153170.44;4944324;29;20540;-88
2023/11/04 08:02:20;;;;;;;3.00;1.87;;;;;;;7.09;100.00;153182.09;4959957;29;20474;-88
2023/11/04 08:04:54;;;;;;;2.90;2.20;;;;;;;7.07;100.00;153175.66;4944374;29;20451;-88
2023/11/04 08:07:26;;;;;;;2.30;1.80;;;;;;;7.08;100.00;153179.50;4959527;29;20440;-87
2023/11/04 08:10:03;;;;;;;1.90;1.53;;;;;;;7.06;100.00;153174.34;4944041;29;20494;-88
2023/11/04 08:12:36;;;;;;;2.80;1.77;;;;;;;7.03;100.00;153165.28;4959198;29;20458;-87
2023/11/04 08:15:12;;;;;;;3.30;1.87;;;;;;;6.97;100.00;153151.09;4944041;29;20486;-88
2023/11/04 08:17:41;;;;;;;2.73;2.40;;;;;;;6.99;100.00;153155.00;4958719;29;20550;-87
2023/11/04 08:20:12;;;;;;;2.53;2.03;;;;;;;6.98;100.00;153152.38;4959321;29;20784;-87
2023/11/04 08:22:41;;;;;;;4.17;3.50;;;;;;;6.97;100.00;153151.09;4942892;29;20459;-87
2023/11/04 08:25:10;;;;;;;2.60;2.03;;;;;;;7.00;100.00;153157.53;4943191;29;20814;-87
2023/11/04 08:27:41;;;;;;;3.13;2.00;;;;;;;7.11;100.00;153187.25;4943527;29;20503;-87
2023/11/04 08:30:15;;;;;;;2.50;2.17;;;;;;;7.15;100.00;153197.56;4958255;29;20448;-87
2023/11/04 08:32:46;;;;;;;2.30;1.70;;;;;;;7.16;100.00;153200.16;4943221;29;20451;-87
2023/11/04 08:35:16;;;;;;;1.97;1.50;;;;;;;7.14;100.00;153193.72;4942920;29;20462;-87
2023/11/04 08:37:49;;;;;;;2.37;1.90;;;;;;;7.20;100.00;153209.22;4944037;29;20815;-87
2023/11/04 08:40:24;;;;;;;2.70;1.50;;;;;;;7.21;100.00;153211.78;4960052;29;21551;-87
2023/11/04 08:43:00;;;;;;;1.87;1.50;;;;;;;7.23;100.00;153216.91;4974907;29;20428;-87
2023/11/04 08:45:37;;;;;;;3.50;1.23;;;;;;;7.25;100.00;153222.13;4958442;29;20459;-87
2023/11/04 08:48:14;;;;;;;1.47;1.30;;;;;;;7.27;100.00;153228.56;4958245;29;20440;-87
2023/11/04 08:50:45;;;;;;;1.67;1.57;;;;;;;7.31;100.00;153238.88;4942967;29;20447;-87
2023/11/04 08:53:14;;;;;;;1.97;1.30;;;;;;;7.35;100.00;153249.25;4926808;29;20539;-87
2023/11/04 08:55:48;;;;;;;2.37;1.40;;;;;;;7.46;100.00;153275.06;4958455;29;20455;-87
2023/11/04 08:58:21;;;;;;;1.53;1.30;;;;;;;7.54;100.00;153297.03;4958468;29;20503;-87
2023/11/04 09:00:54;;;;;;;2.37;1.83;;;;;;;7.64;100.00;153321.56;4942792;29;20447;-87
2023/11/04 09:03:24;;;;;;;1.70;1.43;;;;;;;7.73;100.00;153344.81;4942453;29;20471;-88
2023/11/04 09:05:52;;;;;;;1.50;1.20;;;;;;;7.85;100.00;153375.81;4957689;29;20534;-88
2023/11/04 09:08:27;;;;;;;1.70;1.40;;;;;;;7.88;100.00;153383.56;4942655;29;20470;-88
2023/11/04 09:10:58;;;;;;;1.87;1.20;;;;;;;7.97;100.00;153406.78;4942099;29;20452;-87
2023/11/04 09:13:35;;;;;;;2.07;1.20;;;;;;;8.07;100.00;153431.38;4973747;29;20459;-87
2023/11/04 09:16:04;;;;;;;4.47;1.17;;;;;;;8.15;100.00;153453.34;4943136;29;20482;-87
2023/11/04 09:18:37;;;;;;;2.77;1.60;;;;;;;8.33;100.00;153499.91;4957585;29;20502;-87
2023/11/04 09:21:09;;;;;;;1.70;1.30;;;;;;;8.37;100.00;153510.22;4960651;29;20452;-87
2023/11/04 09:23:44;;;;;;;2.23;1.30;;;;;;;8.36;100.00;153507.69;4961268;29;20494;-87
2023/11/04 09:26:16;;;;;;;1.73;1.07;;;;;;;8.34;100.00;153502.47;4959840;29;20435;-87
2023/11/04 09:28:50;;;;;;;1.50;1.00;;;;;;;8.29;98.91;153489.56;4957780;29;20451;-88
2023/11/04 09:31:25;;;;;;;1.37;1.03;;;;;;;8.25;99.26;153477.88;4958365;29;20466;-87
2023/11/04 09:34:02;;;;;;;1.33;0.80;;;;;;;8.23;99.41;153472.72;4943000;29;20491;-87
2023/11/04 09:36:44;;;;;;;2.10;1.43;;;;;;;8.26;97.76;153481.75;4944041;29;20471;-87
2023/11/04 09:42:02;;;;;;;1.40;1.20;;;;;;;8.19;99.02;153463.66;4942341;29;20459;-87
2023/11/04 09:44:42;;;;;;;1.43;1.13;;;;;;;8.20;99.48;153466.28;4958766;29;20459;-87
2023/11/04 09:47:12;;;;;;;2.30;0.97;;;;;;;8.22;99.31;153471.44;4942555;29;20454;-88
2023/11/04 09:49:48;;;;;;;1.60;1.23;;;;;;;8.25;99.54;153477.88;4958191;29;20431;-88
2023/11/04 09:52:20;;;;;;;1.93;1.20;;;;;;;8.31;99.51;153493.47;4957075;29;20506;-88
2023/11/04 09:54:56;;;;;;;1.90;1.30;;;;;;;8.40;97.57;153516.69;4943343;29;20467;-88
2023/11/04 09:57:29;;;;;;;1.40;0.87;;;;;;;8.52;97.15;153549.00;4957511;29;20574;-88
2023/11/04 10:00:03;;;;;;;1.57;1.00;;;;;;;8.62;97.30;153572.28;4941489;29;20459;-88
2023/11/04 10:02:45;;;;;;;1.20;0.80;;;;;;;8.74;95.73;153603.28;4975232;29;20451;-88
2023/11/04 10:05:14;;;;;;;1.17;0.73;;;;;;;8.83;96.84;153627.88;4941953;29;20714;-88
2023/11/04 10:08:07;;;;;;;1.03;0.80;;;;;;;8.96;96.75;153660.19;4942484;29;20518;-88
2023/11/04 10:10:48;;;;;;;1.97;0.90;;;;;;;9.09;96.73;153693.81;4919236;29;20476;-88
2023/11/04 10:13:22;;;;;;;1.20;0.90;;;;;;;9.13;97.09;153704.19;4919142;29;20477;-88
2023/11/04 10:16:05;;;;;;;1.20;0.90;;;;;;;9.13;96.10;153704.19;4926158;29;20519;-88
2023/11/04 10:18:37;;;;;;;1.50;0.90;;;;;;;9.11;97.02;153698.97;4927334;29;20476;-88
2023/11/04 10:21:08;;;;;;;2.07;1.10;;;;;;;9.07;96.71;153688.66;4942960;29;20464;-88
2023/11/04 10:23:43;;;;;;;5.43;1.70;;;;;;;9.12;95.70;153701.59;4927802;29;20444;-88
2023/11/04 10:26:27;;;;;;;1.83;1.17;;;;;;;9.19;94.29;153719.69;4942697;29;20683;-87
2023/11/04 10:29:08;;;;;;;1.70;1.20;;;;;;;9.16;92.98;153711.91;4942900;29;20448;-89
2023/11/04 10:32:05;;;;;;;2.30;1.20;;;;;;;9.09;92.14;153693.81;4941256;29;20455;-88
2023/11/04 10:34:40;;;;;;;1.20;0.90;;;;;;;9.05;92.94;153683.50;4943134;29;20511;-88
2023/11/04 10:40:05;;;;;;;1.57;1.17;;;;;;;9.00;92.82;153671.81;4929579;29;20510;-89
2023/11/04 10:42:43;;;;;;;2.23;1.03;;;;;;;8.94;92.84;153656.34;4927158;29;20519;-88
2023/11/04 10:45:17;;;;;;;2.00;1.00;;;;;;;8.95;92.60;153657.59;4958964;29;20444;-88
2023/11/04 10:48:09;;;;;;;1.40;1.20;;;;;;;8.90;93.70;153645.97;4943352;29;20464;-88
2023/11/04 10:50:45;;;;;;;1.30;1.10;;;;;;;8.87;92.71;153636.94;4928098;29;20472;-88
2023/11/04 10:53:26;;;;;;;1.40;1.10;;;;;;;8.87;92.68;153636.94;4911607;29;20456;-88
2023/11/04 10:56:14;;;;;;;2.00;1.20;;;;;;;8.83;92.69;153626.59;4958812;29;20459;-88
2023/11/04 10:58:51;;;;;;;2.33;0.90;;;;;;;8.79;93.03;153616.25;4888430;29;20559;-88
2023/11/04 11:01:31;;;;;;;1.60;1.03;;;;;;;8.80;92.42;153620.13;4888957;29;20537;-88
2023/11/04 11:04:28;;;;;;;1.20;0.90;;;;;;;8.78;92.86;153613.66;4891423;29;20924;-88
2023/11/04 11:06:59;;;;;;;1.47;1.00;;;;;;;8.75;92.75;153605.91;4903826;29;20450;-88
2023/11/04 11:09:33;;;;;;;3.00;0.90;;;;;;;8.77;93.00;153611.06;4904063;29;20716;-88
2023/11/04 11:12:07;;;;;;;1.40;1.00;;;;;;;8.73;92.74;153600.72;4903906;29;20465;-88
2023/11/04 11:14:46;;;;;;;1.23;0.73;;;;;;;8.78;92.64;153613.66;4903982;29;20625;-88
2023/11/04 11:17:37;;;;;;;1.60;1.10;;;;;;;8.85;92.27;153631.75;4918949;29;20480;-87
2023/11/04 11:20:36;;;;;;;2.10;1.30;;;;;;;8.91;92.22;153648.56;4866737;29;20488;-86
2023/11/04 11:23:10;;;;;;;1.83;1.10;;;;;;;9.01;91.40;153674.44;4882793;29;20510;-87
2023/11/04 11:26:15;;;;;;;1.50;0.90;;;;;;;9.06;90.95;153687.34;4867363;29;20444;-87
2023/11/04 11:28:53;;;;;;;1.63;1.00;;;;;;;9.10;90.04;153696.41;4869355;29;20463;-87
2023/11/04 11:31:37;;;;;;;1.60;0.90;;;;;;;9.12;90.95;153702.88;4904165;29;20434;-87
2023/11/04 11:34:11;;;;;;;1.40;0.87;;;;;;;9.08;90.12;153691.25;4916949;29;20473;-87
2023/11/04 11:36:58;;;;;;;1.13;0.63;;;;;;;9.06;89.80;153686.06;4874521;29;20454;-88
2023/11/04 11:39:35;;;;;;;1.10;0.80;;;;;;;9.04;91.22;153682.19;4895245;29;20517;-88
2023/11/04 11:42:10;;;;;;;2.20;1.00;;;;;;;9.02;90.75;153677.03;4874070;29;20445;-86
2023/11/04 11:44:50;;;;;;;2.70;1.00;;;;;;;9.04;91.63;153680.88;4902904;29;20530;-87
2023/11/04 11:47:19;;;;;;;2.50;1.07;;;;;;;8.98;91.89;153665.34;4902632;29;20490;-87
2023/11/04 11:49:53;;;;;;;1.90;1.70;;;;;;;8.98;91.81;153666.66;4883772;29;20451;-87
2023/11/04 11:52:29;;;;;;;1.20;0.70;;;;;;;9.01;90.60;153673.13;4922776;29;20464;-88
2023/11/04 11:55:00;;;;;;;1.57;0.80;;;;;;;9.02;90.69;153677.03;4923015;29;20448;-88
2023/11/04 11:57:33;;;;;;;1.90;1.00;;;;;;;9.06;89.90;153686.06;4906422;29;20745;-87
2023/11/04 12:00:06;;;;;;;1.93;1.03;;;;;;;9.06;89.56;153687.34;4921952;29;20457;-87
2023/11/04 12:02:48;;;;;;;2.40;1.00;;;;;;;9.09;88.61;153695.13;4922883;29;20449;-87
2023/11/04 12:05:21;;;;;;;1.57;0.80;;;;;;;9.10;89.08;153696.41;4922363;29;20450;-87
2023/11/04 12:07:56;;;;;;;1.77;1.10;;;;;;;9.10;87.87;153696.41;4905683;29;20477;-87
2023/11/04 12:10:27;;;;;;;1.20;0.70;;;;;;;9.09;88.14;153693.81;4921633;29;20720;-87
2023/11/04 12:13:17;;;;;;;2.07;1.00;;;;;;;9.03;89.24;153678.28;4922029;29;20461;-87
2023/11/04 12:15:47;;;;;;;1.70;1.10;;;;;;;8.97;91.68;153664.09;4906250;29;20829;-87
2023/11/04 12:18:21;;;;;;;2.60;1.07;;;;;;;8.91;91.10;153647.28;4925261;29;20556;-88
2023/11/04 12:21:05;;;;;;;2.23;0.87;;;;;;;8.91;90.22;153648.56;4924039;29;20801;-87
2023/11/04 12:23:42;;;;;;;2.70;1.83;;;;;;;8.92;92.20;153649.88;4923806;29;20460;-88
2023/11/04 12:26:15;;;;;;;2.80;1.37;;;;;;;8.92;93.17;153649.88;4939931;29;20798;-88
2023/11/04 12:28:53;;;;;;;2.83;0.93;;;;;;;8.93;92.12;153652.44;4926219;29;20512;-88
2023/11/04 12:31:25;;;;;;;2.37;1.10;;;;;;;8.93;92.76;153652.44;4910058;29;20451;-88
2023/11/04 12:34:01;;;;;;;1.40;0.93;;;;;;;8.93;92.08;153652.44;4941089;29;20555;-88
2023/11/04 12:36:36;;;;;;;1.80;1.10;;;;;;;8.96;89.95;153660.19;4940785;29;20456;-88